Time;durP1;ratioP1;P1;durP2;ratioP2;P2;SDS_P1;SDS_P2;PMS_P1;PMS_P2;Temp;Humidity;BMP_temperature;BMP_pressure;BME280_temperature;BME280_humidity;BME280_pressure;Samples;Min_cycle;Max_cycle;Signal;HPM_P1;HPM_P2
2021/05/18 00:00:29;;;;;;;2.40;2.20;;;;;;;8.93;95.23;95470.80;128060;1101;22939;-85
2021/05/18 00:03:18;;;;;;;2.03;1.78;;;;;;;8.93;95.34;95457.59;128037;1101;22770;-85
2021/05/18 00:05:51;;;;;;;2.25;1.95;;;;;;;8.93;95.10;95467.38;128053;1101;22772;-84
2021/05/18 00:08:23;;;;;;;4.35;2.10;;;;;;;8.93;95.10;95464.73;128067;1101;22945;-85
2021/05/18 00:13:47;;;;;;;2.50;1.78;;;;;;;8.91;95.24;95462.39;128050;1096;22767;-83
2021/05/18 00:16:18;;;;;;;3.73;2.05;;;;;;;8.92;95.58;95461.31;128099;1101;22776;-85
2021/05/18 00:18:49;;;;;;;2.43;1.60;;;;;;;8.92;95.08;95461.31;128058;1101;22783;-86
2021/05/18 00:21:18;;;;;;;2.30;1.90;;;;;;;8.92;94.92;95460.53;128065;1101;22807;-85
2021/05/18 00:23:48;;;;;;;2.58;1.83;;;;;;;8.91;95.40;95459.75;128016;1101;22790;-85
2021/05/18 00:26:18;;;;;;;2.40;1.55;;;;;;;8.91;95.19;95458.97;128032;1101;22766;-84
2021/05/18 00:28:48;;;;;;;1.45;1.25;;;;;;;8.92;95.61;95460.53;128061;1101;22772;-84
2021/05/18 00:31:18;;;;;;;1.80;1.40;;;;;;;8.88;95.92;95465.63;128055;1101;22776;-85
2021/05/18 00:33:48;;;;;;;2.55;1.65;;;;;;;8.87;95.36;95463.28;128077;1101;22786;-85
2021/05/18 00:36:18;;;;;;;2.63;1.75;;;;;;;8.87;95.57;95458.78;128093;1101;22793;-84
2021/05/18 00:38:48;;;;;;;1.53;1.35;;;;;;;8.85;95.69;95450.34;128065;1095;25890;-83
2021/05/18 00:41:18;;;;;;;2.75;1.75;;;;;;;8.83;95.52;95463.06;128066;1096;25877;-86
2021/05/18 00:43:48;;;;;;;2.03;1.55;;;;;;;8.81;95.52;95465.23;128067;1101;22865;-84
2021/05/18 00:46:18;;;;;;;3.75;2.10;;;;;;;8.80;95.53;95471.59;128115;1101;23538;-86
2021/05/18 00:48:57;;;;;;;2.63;1.58;;;;;;;8.79;95.60;95459.45;128135;1101;22777;-86
2021/05/18 00:51:27;;;;;;;4.30;2.30;;;;;;;8.79;95.46;95477.17;128133;1096;26286;-83
2021/05/18 00:54:01;;;;;;;3.78;2.10;;;;;;;8.79;95.24;95466.60;128068;1095;22938;-82
2021/05/18 00:59:18;;;;;;;4.00;2.23;;;;;;;8.75;95.24;95469.06;128080;1101;24426;-83
2021/05/18 01:01:48;;;;;;;2.65;2.05;;;;;;;8.74;95.29;95462.21;128060;1101;22821;-83
2021/05/18 01:04:20;;;;;;;2.70;2.30;;;;;;;8.78;94.90;95475.61;128035;1101;22772;-86
2021/05/18 01:06:50;;;;;;;3.27;2.13;;;;;;;8.77;95.26;95472.19;128099;1101;22846;-85
2021/05/18 01:09:19;;;;;;;2.00;1.60;;;;;;;8.77;94.97;95479.33;128044;1101;22790;-87
2021/05/18 01:11:53;;;;;;;3.38;2.35;;;;;;;8.78;95.09;95481.67;128044;1101;23719;-86
2021/05/18 01:14:23;;;;;;;3.78;2.10;;;;;;;8.78;94.72;95473.75;128029;1101;22858;-83
2021/05/18 01:16:53;;;;;;;2.38;1.55;;;;;;;8.76;95.20;95483.05;128039;1101;22797;-86
2021/05/18 01:19:25;;;;;;;3.38;2.25;;;;;;;8.74;94.88;95480.70;128076;1101;22893;-85
2021/05/18 01:21:56;;;;;;;2.40;1.60;;;;;;;8.71;95.12;95478.63;128101;1094;22785;-85
2021/05/18 01:24:27;;;;;;;3.08;1.85;;;;;;;8.69;95.35;95488.70;128084;1096;22773;-84
2021/05/18 01:26:57;;;;;;;3.75;2.00;;;;;;;8.70;95.16;95482.34;128084;1101;22797;-85
2021/05/18 01:29:29;;;;;;;2.23;1.18;;;;;;;8.71;94.92;95477.84;128115;1097;22867;-85
2021/05/18 01:32:09;;;;;;;1.10;0.90;;;;;;;8.70;94.97;95474.42;128062;1101;22772;-87
2021/05/18 01:34:39;;;;;;;2.15;1.30;;;;;;;8.71;94.91;95483.13;128106;1101;22774;-84
2021/05/18 01:37:09;;;;;;;2.20;1.50;;;;;;;8.71;94.80;95491.84;128151;1101;22761;-85
2021/05/18 01:45:17;;;;;;;1.15;1.03;;;;;;;8.68;94.91;95497.72;128040;1101;22786;-84
2021/05/18 01:47:50;;;;;;;2.13;1.35;;;;;;;8.68;94.62;95492.43;128050;1101;22981;-84
2021/05/18 01:50:24;;;;;;;2.63;1.30;;;;;;;8.66;94.99;95493.80;128087;1101;22766;-87
2021/05/18 01:52:56;;;;;;;3.10;1.25;;;;;;;8.66;94.85;95499.09;128090;1101;22877;-85
2021/05/18 01:55:32;;;;;;;2.23;1.53;;;;;;;8.64;94.88;95504.66;128066;1101;23699;-83
2021/05/18 01:58:03;;;;;;;1.25;1.13;;;;;;;8.64;94.91;95507.31;128060;1101;22792;-84
2021/05/18 02:00:37;;;;;;;1.05;0.95;;;;;;;8.64;95.01;95507.31;128097;1101;22794;-83
2021/05/18 02:03:07;;;;;;;2.60;1.50;;;;;;;8.63;95.13;95511.81;128078;1101;22853;-84
2021/05/18 02:05:39;;;;;;;;;;;;;;;8.64;94.82;95496.74;128121;1096;26577;-83
2021/05/18 02:08:12;;;;;;;1.25;1.15;;;;;;;8.64;94.66;95512.59;128126;1101;21468;-83
2021/05/18 02:10:42;;;;;;;1.83;1.58;;;;;;;8.63;95.12;95517.09;128163;1096;25899;-83
2021/05/18 02:13:13;;;;;;;2.05;1.50;;;;;;;8.61;94.99;95515.83;128126;1101;22800;-89
2021/05/18 02:15:48;;;;;;;1.13;1.03;;;;;;;8.61;94.77;95521.89;128068;1094;22832;-83
2021/05/18 02:18:48;;;;;;;2.08;1.78;;;;;;;8.62;94.63;95525.31;128137;1101;22807;-85
2021/05/18 02:21:31;;;;;;;2.33;1.70;;;;;;;8.62;94.56;95528.73;128056;1101;23007;-86
2021/05/18 02:26:52;;;;;;;2.03;1.60;;;;;;;8.67;94.19;95541.06;128086;1101;24364;-84
2021/05/18 02:29:22;;;;;;;1.98;1.48;;;;;;;8.67;94.51;95543.70;128085;1101;24548;-83
2021/05/18 02:31:54;;;;;;;1.55;1.05;;;;;;;8.66;94.29;95542.14;128101;1101;22772;-85
2021/05/18 02:34:24;;;;;;;2.53;1.48;;;;;;;8.68;94.48;95550.55;128062;1101;22776;-84
2021/05/18 02:36:56;;;;;;;1.73;1.50;;;;;;;8.68;94.18;95555.84;128086;1101;22769;-84
2021/05/18 02:39:34;;;;;;;1.33;1.00;;;;;;;8.69;94.09;95557.41;128045;1101;22793;-84
2021/05/18 02:42:18;;;;;;;2.70;1.25;;;;;;;8.67;94.38;95564.84;128135;1096;26250;-85
2021/05/18 02:45:06;;;;;;;2.58;1.55;;;;;;;8.63;94.41;95562.01;128064;1101;22785;-83
2021/05/18 02:50:53;;;;;;;1.00;0.70;;;;;;;8.66;93.50;95562.50;128082;1101;22769;-84
2021/05/18 02:53:45;;;;;;;1.28;1.05;;;;;;;8.64;93.26;95560.15;128029;1096;24362;-84
2021/05/18 02:57:30;;;;;;;1.50;0.75;;;;;;;8.60;93.23;95567.09;127997;1101;22773;-82
2021/05/18 03:07:39;;;;;;;1.33;0.93;;;;;;;8.63;92.62;95585.00;126745;1110;22820;-83
2021/05/18 03:10:14;;;;;;;1.55;0.80;;;;;;;8.61;92.38;95589.80;127394;1108;22820;-86
2021/05/18 03:12:44;;;;;;;1.25;1.13;;;;;;;8.58;92.27;95587.71;127357;1107;22904;-83
2021/05/18 03:15:16;;;;;;;1.40;0.95;;;;;;;8.59;92.29;95602.52;127399;1108;22817;-84
2021/05/18 03:17:46;;;;;;;1.30;1.00;;;;;;;8.59;92.34;95599.88;127472;1108;23043;-82
2021/05/18 03:20:18;;;;;;;1.30;1.00;;;;;;;8.57;92.15;95602.78;127327;1107;22844;-83
2021/05/18 03:22:48;;;;;;;1.00;0.90;;;;;;;8.57;92.21;95604.64;127290;1103;22800;-83
2021/05/18 03:25:18;;;;;;;1.33;1.20;;;;;;;8.59;91.87;95602.52;127363;1103;27111;-83
2021/05/18 03:27:48;;;;;;;1.27;0.97;;;;;;;8.56;92.40;95603.07;127430;1108;22780;-85
2021/05/18 03:30:27;;;;;;;1.13;0.98;;;;;;;8.54;92.49;95598.08;127453;1103;26279;-85
2021/05/18 03:35:45;;;;;;;1.15;1.00;;;;;;;8.57;92.23;95607.28;127416;1108;22853;-83
2021/05/18 03:38:18;;;;;;;1.20;0.93;;;;;;;8.58;92.24;95616.77;127486;1108;22813;-84
2021/05/18 03:40:52;;;;;;;0.70;0.70;;;;;;;8.58;92.51;95619.41;127505;1108;22788;-82
2021/05/18 03:43:38;;;;;;;0.80;0.80;;;;;;;8.57;92.61;95615.20;127517;1107;22806;-85
2021/05/18 03:52:18;;;;;;;0.83;0.75;;;;;;;8.53;92.58;95625.57;127508;1108;22809;-83
2021/05/18 03:58:35;;;;;;;1.23;0.90;;;;;;;8.53;92.91;95624.78;127532;1107;23027;-85
2021/05/18 04:03:40;;;;;;;0.83;0.67;;;;;;;8.62;91.69;95631.77;127713;1102;22787;-85
2021/05/18 04:17:22;;;;;;;1.68;0.85;;;;;;;8.63;90.26;95640.48;127849;1101;22776;-82
2021/05/18 04:20:00;;;;;;;0.50;0.50;;;;;;;8.62;90.40;95644.98;127703;1104;22770;-86
2021/05/18 04:22:38;;;;;;;0.63;0.50;;;;;;;8.61;90.38;95651.34;127814;1101;22780;-85
2021/05/18 04:39:08;;;;;;;1.08;0.85;;;;;;;8.62;90.46;95652.91;127660;1104;22884;-85
2021/05/18 04:42:06;;;;;;;0.70;0.70;;;;;;;8.59;90.14;95668.56;127765;1096;27047;-83
2021/05/18 04:50:42;;;;;;;1.65;0.65;;;;;;;8.66;90.22;95652.33;127809;1101;22791;-87
2021/05/18 04:53:17;;;;;;;0.95;0.78;;;;;;;8.66;90.06;95661.03;127702;1101;22794;-84
2021/05/18 05:01:29;;;;;;;1.40;0.50;;;;;;;8.70;90.38;95651.45;127806;1096;25848;-83
2021/05/18 05:04:08;;;;;;;0.80;0.63;;;;;;;8.70;91.08;95669.95;127774;1101;22836;-83
2021/05/18 05:06:46;;;;;;;1.10;0.60;;;;;;;8.68;90.71;95669.45;127672;1104;22787;-83
2021/05/18 05:09:22;;;;;;;0.60;0.50;;;;;;;8.71;90.77;95670.73;127708;1104;22780;-84
2021/05/18 05:14:40;;;;;;;0.40;0.40;;;;;;;8.80;90.55;95667.14;127709;1101;23068;-83
2021/05/18 05:17:11;;;;;;;0.48;0.35;;;;;;;8.83;90.53;95669.20;127837;1102;22779;-84
2021/05/18 05:19:41;;;;;;;0.68;0.68;;;;;;;8.83;90.80;95663.92;128173;1101;22794;-83
2021/05/18 05:22:13;;;;;;;0.85;0.60;;;;;;;8.85;90.47;95667.05;128093;1101;22815;-84
2021/05/18 05:24:44;;;;;;;1.23;0.55;;;;;;;8.87;90.85;95667.58;128109;1101;24411;-84
2021/05/18 05:27:14;;;;;;;0.40;0.40;;;;;;;8.89;90.70;95667.28;128102;1101;22797;-84
2021/05/18 05:29:44;;;;;;;0.73;0.53;;;;;;;8.90;90.62;95666.20;128137;1101;22803;-83
2021/05/18 05:32:14;;;;;;;0.85;0.55;;;;;;;8.92;90.96;95670.13;128085;1101;22794;-85
2021/05/18 05:34:44;;;;;;;1.70;0.60;;;;;;;8.93;90.69;95669.05;128079;1101;22766;-83
2021/05/18 05:37:14;;;;;;;1.00;0.70;;;;;;;8.97;90.83;95669.23;128045;1101;22800;-86
2021/05/18 05:39:43;;;;;;;1.20;0.60;;;;;;;9.02;90.96;95671.03;128099;1095;26257;-84
2021/05/18 05:42:15;;;;;;;0.78;0.68;;;;;;;9.05;90.99;95665.16;128023;1101;22793;-83
2021/05/18 05:44:45;;;;;;;0.68;0.60;;;;;;;9.10;90.96;95660.55;128031;1101;22776;-83
2021/05/18 05:47:15;;;;;;;1.18;1.00;;;;;;;9.12;90.72;95661.05;128106;1095;26264;-82
2021/05/18 05:49:47;;;;;;;1.43;0.60;;;;;;;9.15;91.24;95670.27;128083;1101;22794;-84
2021/05/18 05:52:21;;;;;;;1.08;0.60;;;;;;;9.17;91.08;95671.55;128084;1101;22821;-83
2021/05/18 05:54:52;;;;;;;0.60;0.55;;;;;;;9.16;91.15;95663.91;128071;1101;22834;-83
2021/05/18 05:57:22;;;;;;;0.88;0.70;;;;;;;9.16;91.08;95672.63;128054;1101;22801;-82
2021/05/18 05:59:52;;;;;;;0.60;0.60;;;;;;;9.20;91.04;95683.40;128047;1101;22776;-83
2021/05/18 06:02:22;;;;;;;1.83;0.70;;;;;;;9.17;90.94;95681.34;128079;1096;27243;-83
2021/05/18 06:04:52;;;;;;;1.00;0.80;;;;;;;9.22;91.08;95681.24;128070;1101;22772;-85
2021/05/18 06:07:22;;;;;;;1.33;0.70;;;;;;;9.23;90.86;95682.81;128067;1101;24140;-83
2021/05/18 06:09:56;;;;;;;0.63;0.60;;;;;;;9.21;90.56;95691.03;128097;1101;22777;-84
2021/05/18 06:12:38;;;;;;;0.73;0.70;;;;;;;9.22;90.89;95692.60;128079;1101;22804;-83
2021/05/18 06:41:09;;;;;;;0.68;0.68;;;;;;;9.19;90.95;95714.34;127826;1101;22790;-83
2021/05/18 06:41:17;;;;;;;0.65;0.65;;;;;;;9.21;90.80;95701.61;128044;1101;22945;-83
2021/05/18 06:46:50;;;;;;;1.13;0.85;;;;;;;9.21;90.57;95724.63;128048;1101;22764;-88
2021/05/18 06:49:20;;;;;;;1.23;1.13;;;;;;;9.20;90.57;95715.91;128054;1101;22775;-83
2021/05/18 06:51:50;;;;;;;1.05;0.73;;;;;;;9.20;91.05;95718.56;128075;1101;22774;-86
2021/05/18 06:54:21;;;;;;;1.35;1.00;;;;;;;9.19;90.95;95726.78;128047;1097;22774;-85
2021/05/18 06:56:54;;;;;;;1.70;1.00;;;;;;;9.20;91.19;95720.42;128045;1101;22769;-83
2021/05/18 07:02:12;;;;;;;1.23;1.03;;;;;;;9.28;91.67;95725.02;128056;1101;22776;-85
2021/05/18 07:04:42;;;;;;;2.35;0.98;;;;;;;9.30;91.81;95727.41;128060;1101;22790;-83
2021/05/18 07:07:19;;;;;;;2.43;0.98;;;;;;;9.30;91.74;95724.76;128080;1101;22854;-84
2021/05/18 07:09:49;;;;;;;1.70;0.90;;;;;;;9.29;91.82;95725.81;128050;1097;22772;-83
2021/05/18 07:12:19;;;;;;;0.98;0.63;;;;;;;9.27;92.00;95725.31;128079;1101;22942;-84
2021/05/18 07:14:49;;;;;;;1.18;1.00;;;;;;;9.25;92.40;95741.48;128048;1101;22754;-84
2021/05/18 07:17:20;;;;;;;1.18;0.90;;;;;;;9.29;92.71;95733.74;128041;1101;22960;-83
2021/05/18 07:19:50;;;;;;;2.25;1.00;;;;;;;9.33;92.61;95745.33;128016;1097;24752;-83
2021/05/18 07:22:20;;;;;;;2.60;1.33;;;;;;;9.29;92.80;95745.13;128059;1096;26391;-82
2021/05/18 07:24:50;;;;;;;2.23;1.38;;;;;;;9.30;92.83;95749.34;128088;1101;22790;-84
2021/05/18 07:27:20;;;;;;;2.63;1.55;;;;;;;9.32;92.86;95757.77;128030;1101;23132;-84
2021/05/18 07:29:50;;;;;;;2.73;1.10;;;;;;;9.36;92.88;95740.23;128052;1101;22798;-85
2021/05/18 07:32:29;;;;;;;2.73;1.30;;;;;;;9.42;92.33;95739.05;128049;1101;24391;-83
2021/05/18 07:34:59;;;;;;;0.88;0.83;;;;;;;9.50;91.47;95745.55;128056;1101;22772;-84
2021/05/18 07:37:29;;;;;;;0.93;0.90;;;;;;;9.49;90.87;95736.83;128092;1101;23212;-83
2021/05/18 07:39:59;;;;;;;1.60;0.90;;;;;;;9.46;90.80;95734.77;128080;1097;22791;-83
2021/05/18 07:42:29;;;;;;;0.78;0.78;;;;;;;9.44;91.32;95741.44;128055;1101;22794;-83
2021/05/18 07:44:58;;;;;;;;;;;;;;;9.44;91.24;95750.16;128088;1101;22790;-84
2021/05/18 07:47:32;;;;;;;1.33;0.97;;;;;;;9.41;90.84;95742.78;128042;1101;21635;-83
2021/05/18 07:50:05;;;;;;;1.63;1.13;;;;;;;9.39;90.55;95749.45;128062;1101;22794;-85
2021/05/18 08:01:09;;;;;;;2.03;1.40;;;;;;;9.47;91.16;95752.22;128043;1096;26014;-84
2021/05/18 08:06:27;;;;;;;1.10;0.90;;;;;;;9.46;90.89;95763.88;128120;1101;22793;-84
2021/05/18 08:08:57;;;;;;;1.58;0.80;;;;;;;9.51;91.13;95760.34;128123;1101;22798;-84
2021/05/18 08:11:27;;;;;;;2.08;1.00;;;;;;;9.51;90.74;95760.34;128059;1101;22799;-83
2021/05/18 08:13:58;;;;;;;0.63;0.60;;;;;;;9.54;90.73;95765.05;128077;1101;22776;-85
2021/05/18 10:36:35;;;;;;;5.68;4.93;;;;;;;10.08;90.38;95864.16;128176;1095;25887;-84
2021/05/18 10:39:24;;;;;;;5.78;4.98;;;;;;;10.08;90.23;95867.58;128097;1101;24426;-85
2021/05/18 10:42:04;;;;;;;7.23;5.43;;;;;;;10.05;90.59;95870.83;128038;1101;22779;-83
2021/05/18 10:44:57;;;;;;;6.65;5.93;;;;;;;10.07;90.97;95879.25;128127;1101;24363;-84
2021/05/18 10:47:45;;;;;;;8.75;6.15;;;;;;;10.20;91.55;95874.27;128104;1101;22793;-83
2021/05/18 10:50:15;;;;;;;6.18;4.23;;;;;;;10.20;91.07;95876.92;128042;1094;26257;-84
2021/05/18 10:52:45;;;;;;;5.95;4.80;;;;;;;10.12;90.77;95873.86;128095;1101;23657;-83
2021/05/18 10:55:16;;;;;;;7.28;5.75;;;;;;;10.17;91.03;95882.81;128044;1096;22770;-84
2021/05/18 10:57:46;;;;;;;4.93;4.15;;;;;;;10.27;91.01;95883.41;128057;1101;22939;-86
2021/05/18 11:00:17;;;;;;;6.65;4.88;;;;;;;10.24;90.07;95877.92;128078;1101;22778;-84
2021/05/18 11:02:49;;;;;;;6.80;5.00;;;;;;;10.24;89.98;95883.22;128093;1101;22797;-86
2021/05/18 11:05:22;;;;;;;7.78;5.45;;;;;;;10.18;90.44;95885.16;128058;1101;22772;-87
2021/05/18 11:07:52;;;;;;;7.38;5.50;;;;;;;10.15;90.46;95891.05;128047;1101;22751;-86
2021/05/18 11:10:23;;;;;;;5.55;4.30;;;;;;;10.14;90.34;95888.70;128066;1101;22897;-86
2021/05/18 11:12:55;;;;;;;6.15;5.13;;;;;;;10.18;90.36;95889.67;128042;1101;22803;-87
2021/05/18 11:15:26;;;;;;;6.43;4.25;;;;;;;10.19;90.58;95880.65;128050;1097;22792;-84
2021/05/18 11:17:57;;;;;;;7.35;5.63;;;;;;;10.16;90.54;95899.78;128064;1097;22748;-85
2021/05/18 11:20:45;;;;;;;5.85;4.68;;;;;;;10.09;90.86;95900.93;128080;1096;22832;-84
2021/05/18 11:23:41;;;;;;;4.45;3.05;;;;;;;10.10;90.85;95897.20;127713;1102;22786;-88
2021/05/18 11:26:12;;;;;;;6.13;4.80;;;;;;;10.07;91.48;95903.09;127651;1104;22766;-83
2021/05/18 11:28:46;;;;;;;5.75;4.73;;;;;;;10.03;91.79;95901.33;127669;1104;23748;-85
2021/05/18 11:31:19;;;;;;;6.38;5.00;;;;;;;10.09;92.08;95908.09;127706;1104;22762;-85
2021/05/18 11:33:51;;;;;;;5.23;4.43;;;;;;;10.11;91.75;95908.58;127654;1104;22836;-86
2021/05/18 11:36:24;;;;;;;5.40;4.25;;;;;;;10.13;92.13;95909.07;127809;1097;22874;-87
2021/05/18 11:38:56;;;;;;;6.03;4.88;;;;;;;10.20;91.81;95906.84;127674;1104;22794;-84
2021/05/18 11:41:29;;;;;;;7.95;5.63;;;;;;;10.24;92.10;95907.06;127796;1101;22936;-83
2021/05/18 11:44:00;;;;;;;6.05;5.38;;;;;;;10.20;91.59;95912.14;128046;1097;22779;-85
2021/05/18 11:46:32;;;;;;;6.20;4.85;;;;;;;10.19;91.34;95907.14;128078;1101;22853;-83
2021/05/18 11:49:07;;;;;;;6.60;5.73;;;;;;;10.18;91.48;95906.35;128021;1101;22806;-86
2021/05/18 11:51:45;;;;;;;6.75;5.60;;;;;;;10.21;91.36;95911.09;128096;1101;22804;-84
2021/05/18 11:54:17;;;;;;;6.90;5.25;;;;;;;10.21;91.51;95908.44;128078;1101;22939;-85
2021/05/18 11:56:48;;;;;;;9.68;6.48;;;;;;;10.23;91.51;95916.09;128067;1101;23594;-84
2021/05/18 11:59:20;;;;;;;8.63;5.80;;;;;;;10.26;91.36;95918.15;128060;1101;22781;-85
2021/05/18 12:01:55;;;;;;;7.03;5.93;;;;;;;10.37;91.32;95912.38;128069;1101;22803;-87
2021/05/18 12:04:26;;;;;;;6.05;5.45;;;;;;;10.47;90.51;95908.77;128076;1101;22798;-84
2021/05/18 12:06:59;;;;;;;6.23;5.35;;;;;;;10.55;90.30;95917.88;128081;1101;22831;-84
2021/05/18 12:09:32;;;;;;;6.75;5.78;;;;;;;10.57;90.54;95911.22;128082;1101;22797;-84
2021/05/18 12:12:04;;;;;;;7.43;6.18;;;;;;;10.67;90.96;95916.30;128090;1095;25922;-85
2021/05/18 12:14:43;;;;;;;7.70;5.98;;;;;;;10.84;91.25;95910.42;128172;1101;23203;-83
2021/05/18 12:17:14;;;;;;;7.50;4.98;;;;;;;10.76;89.97;95911.11;128085;1095;22907;-84
2021/05/18 12:19:43;;;;;;;;;;;;;;;10.68;90.29;95912.57;128085;1101;22939;-85
2021/05/18 12:22:13;;;;;;;7.00;4.43;;;;;;;10.61;90.46;95914.84;128064;1101;21616;-84
2021/05/18 12:24:43;;;;;;;6.90;4.88;;;;;;;10.68;90.81;95917.88;128072;1101;22856;-86
2021/05/18 12:27:13;;;;;;;6.43;5.13;;;;;;;10.83;91.30;95929.26;128087;1101;22770;-84
2021/05/18 12:29:50;;;;;;;5.10;4.60;;;;;;;10.95;90.69;95922.38;128082;1101;22891;-84
2021/05/18 12:32:26;;;;;;;4.60;3.88;;;;;;;11.02;89.75;95923.86;128105;1096;26477;-85
2021/05/18 12:34:58;;;;;;;4.43;4.00;;;;;;;10.96;88.83;95913.33;128046;1101;22772;-84
2021/05/18 12:37:36;;;;;;;6.83;4.23;;;;;;;10.96;88.59;95923.16;128130;1101;22776;-84
2021/05/18 12:40:12;;;;;;;6.38;5.10;;;;;;;11.00;89.60;95930.24;128122;1095;27285;-85
2021/05/18 12:42:44;;;;;;;6.48;4.45;;;;;;;10.97;88.27;95924.73;128101;1101;22922;-86
2021/05/18 12:45:22;;;;;;;6.98;6.28;;;;;;;10.94;88.82;95930.63;128050;1101;22802;-84
2021/05/18 12:47:58;;;;;;;6.45;4.88;;;;;;;10.92;88.49;95928.28;128128;1096;22780;-86
2021/05/18 12:50:44;;;;;;;7.60;6.45;;;;;;;11.00;89.00;95932.89;128071;1101;23072;-84
2021/05/18 12:53:26;;;;;;;7.83;6.10;;;;;;;11.06;88.74;95932.78;128040;1101;22855;-86
2021/05/18 12:55:58;;;;;;;7.28;6.13;;;;;;;11.06;88.83;95933.56;128082;1101;22772;-84
2021/05/18 12:58:31;;;;;;;7.25;6.25;;;;;;;11.11;88.82;95936.10;128155;1101;24128;-83
2021/05/18 13:01:12;;;;;;;6.13;5.53;;;;;;;11.14;87.76;95940.83;128086;1101;22772;-84
2021/05/18 13:03:45;;;;;;;7.83;5.60;;;;;;;11.21;88.06;95940.41;128099;1101;22856;-83
2021/05/18 13:06:15;;;;;;;7.55;5.35;;;;;;;11.25;86.66;95947.47;128018;1101;22772;-84
2021/05/18 13:08:45;;;;;;;8.90;6.00;;;;;;;11.27;86.76;95940.02;128125;1101;25417;-88
2021/05/18 13:12:10;;;;;;;6.30;5.50;;;;;;;11.29;86.99;95937.85;128145;1101;24363;-86
2021/05/18 13:14:07;;;;;;;6.28;5.13;;;;;;;11.24;85.97;95939.81;128171;1101;22922;-88
2021/05/18 13:16:38;;;;;;;5.98;5.35;;;;;;;11.18;85.96;95941.80;128156;1101;22801;-87
2021/05/18 13:19:12;;;;;;;7.03;5.70;;;;;;;11.17;86.59;95942.89;128055;1097;24363;-82
2021/05/18 13:21:52;;;;;;;6.65;5.58;;;;;;;11.30;86.87;95938.64;128123;1101;22793;-86
2021/05/18 13:24:27;;;;;;;;;;;;;;;11.46;86.90;95941.73;128144;1101;22800;-86
2021/05/18 13:26:58;;;;;;;6.50;5.83;;;;;;;11.50;85.46;95942.70;128042;1101;21977;-83
2021/05/18 13:29:28;;;;;;;6.48;5.78;;;;;;;11.56;85.67;95941.52;128039;1101;24419;-83
2021/05/18 13:31:59;;;;;;;6.65;5.13;;;;;;;11.65;85.20;95934.38;128094;1096;22794;-88
2021/05/18 13:34:38;;;;;;;6.08;5.15;;;;;;;11.70;84.64;95941.47;128076;1097;22771;-84
2021/05/18 13:37:09;;;;;;;5.35;4.85;;;;;;;11.76;84.68;95933.06;128045;1101;22772;-83
2021/05/18 13:39:39;;;;;;;5.73;5.20;;;;;;;11.79;85.24;95940.45;128118;1101;22939;-84
2021/05/18 13:42:09;;;;;;;7.60;5.45;;;;;;;11.83;85.16;95946.75;128049;1101;22825;-83
2021/05/18 13:44:40;;;;;;;5.60;4.10;;;;;;;11.88;83.64;95943.97;128056;1101;22765;-84
2021/05/18 13:47:10;;;;;;;4.87;4.33;;;;;;;11.96;84.02;95941.66;128065;1096;22777;-85
2021/05/18 13:49:43;;;;;;;4.55;3.90;;;;;;;11.97;82.85;95930.75;128021;1101;23794;-84
2021/05/18 13:52:15;;;;;;;13.95;6.85;;;;;;;11.90;82.45;95943.66;128062;1096;26481;-85
2021/05/18 13:54:45;;;;;;;7.10;5.50;;;;;;;11.88;82.54;95930.69;128084;1101;22772;-86
2021/05/18 13:57:15;;;;;;;7.80;5.70;;;;;;;11.92;83.06;95940.70;128036;1101;22769;-84
2021/05/18 13:59:45;;;;;;;22.38;15.38;;;;;;;11.91;82.74;95941.79;128043;1101;22948;-85
2021/05/18 14:02:17;;;;;;;24.10;18.48;;;;;;;11.85;82.84;95928.64;128009;1101;22797;-86
2021/05/18 14:04:47;;;;;;;13.27;10.37;;;;;;;11.78;83.45;95938.86;128059;1101;22897;-83
2021/05/18 14:07:52;;;;;;;21.05;13.35;;;;;;;11.74;83.89;95942.42;128066;1101;22810;-84
2021/05/18 14:10:22;;;;;;;7.65;5.50;;;;;;;11.80;84.69;95946.55;128059;1101;22790;-84
2021/05/18 14:12:52;;;;;;;7.80;5.63;;;;;;;11.87;84.74;95947.71;128044;1101;22773;-83
2021/05/18 14:15:22;;;;;;;6.28;5.63;;;;;;;11.98;84.92;95931.53;128136;1097;22775;-84
2021/05/18 14:17:53;;;;;;;6.43;4.65;;;;;;;12.02;84.65;95938.59;128057;1097;22803;-83
2021/05/18 14:20:23;;;;;;;7.68;5.28;;;;;;;12.06;84.34;95936.10;128018;1101;22804;-85
2021/05/18 14:22:53;;;;;;;8.37;5.80;;;;;;;12.06;84.28;95939.54;128063;1101;22754;-83
2021/05/18 14:25:42;;;;;;;8.10;5.18;;;;;;;12.03;84.17;95942.03;128073;1101;22757;-86
2021/05/18 14:28:46;;;;;;;8.95;5.85;;;;;;;11.93;84.22;95940.39;128043;1095;26281;-86
2021/05/18 14:31:47;;;;;;;7.05;5.03;;;;;;;11.73;84.51;95944.30;128027;1101;22766;-84
2021/05/18 14:34:38;;;;;;;30.40;15.33;;;;;;;11.42;84.72;95949.52;128152;1101;22763;-87
2021/05/18 14:37:58;;;;;;;6.10;4.00;;;;;;;11.18;85.46;95951.63;128072;1101;22760;-84
2021/05/18 14:44:17;;;;;;;14.00;8.43;;;;;;;10.83;87.09;95959.21;127719;1104;22785;-83
2021/05/18 14:53:49;;;;;;;4.18;3.10;;;;;;;11.04;86.86;95946.34;127649;1104;22980;-87
2021/05/18 14:56:19;;;;;;;6.93;3.65;;;;;;;11.26;87.21;95943.77;127655;1096;24556;-85
2021/05/18 14:58:49;;;;;;;2.68;2.43;;;;;;;11.51;86.99;95950.36;127674;1104;22787;-84
2021/05/18 15:01:19;;;;;;;3.98;2.43;;;;;;;11.75;86.62;95942.13;127701;1104;22788;-85
2021/05/18 15:03:49;;;;;;;4.33;3.10;;;;;;;11.88;86.44;95946.63;127723;1104;22759;-84
2021/05/18 15:06:19;;;;;;;5.73;3.35;;;;;;;11.94;86.88;95943.83;128062;1101;22849;-86
2021/05/18 15:08:49;;;;;;;3.90;3.13;;;;;;;11.96;86.81;95939.78;128111;1101;22763;-83
2021/05/18 15:11:19;;;;;;;4.10;3.23;;;;;;;12.00;87.03;95935.45;128080;1096;22846;-84
2021/05/18 15:13:49;;;;;;;4.43;3.23;;;;;;;12.03;86.47;95934.84;128066;1095;22785;-83
2021/05/18 15:16:20;;;;;;;4.25;3.50;;;;;;;12.07;85.79;95941.11;128035;1101;22763;-84
2021/05/18 15:18:52;;;;;;;5.53;4.20;;;;;;;12.12;86.28;95945.53;128059;1101;22792;-84
2021/05/18 15:21:22;;;;;;;6.25;3.50;;;;;;;12.20;86.36;95939.47;128056;1096;22767;-85
2021/05/18 15:23:52;;;;;;;5.63;4.10;;;;;;;12.32;86.17;95944.22;128059;1101;24376;-83
2021/05/18 15:26:23;;;;;;;5.35;3.33;;;;;;;12.44;85.68;95936.47;128074;1101;22763;-85
2021/05/18 15:28:53;;;;;;;6.50;3.78;;;;;;;12.46;85.29;95937.73;128076;1101;22794;-86
2021/05/18 15:31:23;;;;;;;4.78;3.05;;;;;;;12.53;85.25;95941.80;128095;1101;22793;-85
2021/05/18 15:33:53;;;;;;;6.83;3.50;;;;;;;12.59;85.04;95941.38;128075;1101;24414;-85
2021/05/18 15:36:24;;;;;;;3.63;3.05;;;;;;;12.68;84.50;95934.23;128110;1101;22789;-85
2021/05/18 15:38:54;;;;;;;3.90;2.88;;;;;;;12.84;83.96;95925.83;128060;1101;22782;-85
2021/05/18 15:41:25;;;;;;;4.45;3.13;;;;;;;13.00;84.63;95941.05;128091;1101;22793;-84
2021/05/18 15:43:55;;;;;;;5.23;3.20;;;;;;;13.17;83.42;95936.85;128163;1101;22780;-84
2021/05/18 15:46:29;;;;;;;3.53;2.50;;;;;;;13.20;83.51;95933.59;128138;1101;22782;-85
2021/05/18 15:49:02;;;;;;;4.15;2.35;;;;;;;13.26;82.70;95930.48;128134;1101;22776;-85
2021/05/18 15:51:32;;;;;;;4.05;2.10;;;;;;;13.31;81.19;95934.86;128150;1101;22838;-85
2021/05/18 15:54:03;;;;;;;2.88;2.28;;;;;;;13.19;78.96;95934.69;128100;1101;22853;-84
2021/05/18 15:56:35;;;;;;;4.08;2.05;;;;;;;13.22;80.63;95934.84;128036;1096;26585;-82
2021/05/18 15:59:06;;;;;;;3.45;2.15;;;;;;;13.41;81.08;95942.56;128057;1101;22786;-84
2021/05/18 16:01:37;;;;;;;4.45;2.15;;;;;;;13.46;81.11;95938.95;128039;1095;26223;-87
2021/05/18 16:04:10;;;;;;;4.35;2.18;;;;;;;13.42;80.88;95938.80;128078;1101;22827;-83
2021/05/18 16:06:42;;;;;;;3.93;2.33;;;;;;;13.41;81.16;95939.89;128039;1101;22919;-85
2021/05/18 16:09:14;;;;;;;3.13;1.80;;;;;;;13.38;79.71;95945.06;128077;1101;25421;-84
2021/05/18 16:11:44;;;;;;;4.93;2.53;;;;;;;13.35;80.16;95946.45;128038;1101;22769;-84
2021/05/18 16:14:14;;;;;;;3.05;2.28;;;;;;;13.37;79.48;95941.59;128054;1101;22841;-83
2021/05/18 16:16:47;;;;;;;5.55;2.58;;;;;;;13.24;79.10;95947.86;128123;1101;22794;-84
2021/05/18 16:19:20;;;;;;;4.10;2.25;;;;;;;13.17;78.66;95947.49;128087;1096;22800;-86
2021/05/18 16:21:51;;;;;;;4.70;2.70;;;;;;;13.13;79.13;95959.86;128153;1101;22968;-83
2021/05/18 16:24:23;;;;;;;3.33;2.18;;;;;;;13.08;78.46;95953.57;128130;1101;24366;-84
2021/05/18 16:26:53;;;;;;;4.35;2.48;;;;;;;12.97;78.18;95959.52;128146;1101;22852;-84
2021/05/18 16:29:24;;;;;;;2.97;2.10;;;;;;;12.89;78.36;95955.72;128130;1101;22787;-84